Time;durP1;ratioP1;P1;durP2;ratioP2;P2;SDS_P1;SDS_P2;PMS_P1;PMS_P2;Temp;Humidity;BMP_temperature;BMP_pressure;BME280_temperature;BME280_humidity;BME280_pressure;Samples;Min_cycle;Max_cycle;Signal;HPM_P1;HPM_P2
2023/11/22 00:00:01;;;;;;;18.63;9.15;;;;;;;11.09;67.89;102920.44;5012805;28;20038;-45
2023/11/22 00:02:28;;;;;;;19.17;9.68;;;;;;;11.09;67.40;102915.22;5013527;28;20030;-45
2023/11/22 00:04:54;;;;;;;17.42;9.38;;;;;;;11.01;67.42;102917.47;5014242;28;20038;-50
2023/11/22 00:07:20;;;;;;;17.38;9.40;;;;;;;11.09;66.74;102910.00;5014225;28;20379;-46
2023/11/22 00:09:47;;;;;;;17.95;9.55;;;;;;;11.01;67.04;102916.59;5012894;28;20041;-47
2023/11/22 00:12:13;;;;;;;17.52;8.75;;;;;;;10.96;66.83;102914.66;5012718;28;20054;-53
2023/11/22 00:14:38;;;;;;;15.75;8.65;;;;;;;10.91;66.87;102916.19;5012371;28;20127;-44
2023/11/22 00:17:04;;;;;;;17.02;8.65;;;;;;;10.91;67.08;102916.19;5013006;28;20041;-47
2023/11/22 00:19:30;;;;;;;15.13;8.88;;;;;;;10.89;67.19;102914.31;5012884;28;20145;-47
2023/11/22 00:21:55;;;;;;;17.33;8.60;;;;;;;10.81;67.63;102921.81;5013192;28;20038;-45
2023/11/22 00:24:21;;;;;;;21.90;9.00;;;;;;;10.92;67.37;102930.09;5012226;28;20053;-48
2023/11/22 00:26:46;;;;;;;13.98;8.40;;;;;;;11.01;67.24;102929.63;5012338;28;20034;-45
2023/11/22 00:29:11;;;;;;;19.38;9.10;;;;;;;10.94;67.52;102944.13;5011679;28;20471;-49
2023/11/22 00:31:37;;;;;;;22.02;9.05;;;;;;;10.96;67.32;102940.78;5012288;28;20511;-47
2023/11/22 00:34:02;;;;;;;18.30;9.07;;;;;;;10.91;67.88;102944.91;5010602;28;20382;-49
2023/11/22 00:36:27;;;;;;;18.42;9.05;;;;;;;11.00;67.60;102944.41;5012417;28;20061;-49
2023/11/22 00:38:53;;;;;;;16.42;9.00;;;;;;;11.04;67.25;102943.69;5011305;28;20049;-45
2023/11/22 00:41:18;;;;;;;18.38;8.93;;;;;;;10.93;67.63;102943.22;5011657;28;20044;-50
2023/11/22 00:43:43;;;;;;;17.75;9.18;;;;;;;10.89;68.23;102950.84;5011980;28;20037;-45
2023/11/22 00:46:09;;;;;;;17.08;8.90;;;;;;;11.02;67.64;102957.53;5011723;28;20067;-43
2023/11/22 00:48:34;;;;;;;16.40;8.60;;;;;;;11.05;67.24;102948.09;5011716;28;20030;-46
2023/11/22 00:50:59;;;;;;;15.85;8.38;;;;;;;11.04;66.96;102948.91;5012038;28;20065;-44
2023/11/22 00:53:25;;;;;;;16.77;9.00;;;;;;;10.96;67.27;102948.59;5011530;28;20033;-46
2023/11/22 00:55:50;;;;;;;16.52;9.10;;;;;;;10.95;66.90;102957.25;5013475;28;20033;-51
2023/11/22 00:58:15;;;;;;;15.75;8.70;;;;;;;10.86;66.66;102959.44;5014021;28;20038;-44
2023/11/22 01:00:41;;;;;;;16.20;9.27;;;;;;;10.86;66.94;102961.13;5014677;28;20026;-47
2023/11/22 01:03:08;;;;;;;16.40;8.60;;;;;;;10.80;67.03;102971.28;5013145;28;20073;-45
2023/11/22 01:05:34;;;;;;;14.88;8.93;;;;;;;10.82;66.98;102980.09;5011978;28;20294;-46
2023/11/22 01:07:59;;;;;;;17.17;9.52;;;;;;;10.74;66.83;102977.13;5011901;28;20108;-46
2023/11/22 01:10:25;;;;;;;19.20;9.75;;;;;;;10.43;68.33;102980.03;5010736;28;20049;-47
2023/11/22 01:12:50;;;;;;;17.77;9.50;;;;;;;10.62;67.46;102978.28;5010462;28;20133;-47
2023/11/22 01:15:16;;;;;;;16.77;9.43;;;;;;;10.38;67.89;102986.75;5011703;28;20504;-48
2023/11/22 01:17:41;;;;;;;18.05;9.48;;;;;;;10.32;68.71;102991.66;5012459;28;20030;-46
2023/11/22 01:20:09;;;;;;;19.08;10.02;;;;;;;10.12;69.40;102987.19;5012797;28;20033;-46
2023/11/22 01:22:35;;;;;;;17.17;9.52;;;;;;;10.03;69.76;102991.94;5012566;28;20034;-46
2023/11/22 01:25:01;;;;;;;17.40;8.90;;;;;;;10.33;68.95;103003.00;5010479;28;20382;-46
2023/11/22 01:27:27;;;;;;;18.45;9.60;;;;;;;10.38;68.51;102994.56;5011005;28;20117;-46
2023/11/22 01:29:54;;;;;;;15.88;8.82;;;;;;;10.46;67.66;102994.94;5009915;28;20042;-48
2023/11/22 01:32:21;;;;;;;15.68;8.65;;;;;;;10.51;67.18;102998.66;5010765;28;20033;-48
2023/11/22 01:34:46;;;;;;;17.95;9.55;;;;;;;10.42;67.53;103001.72;5011244;28;20038;-52
2023/11/22 01:37:12;;;;;;;17.98;8.98;;;;;;;10.40;67.69;102994.63;5010779;28;20079;-48
2023/11/22 01:39:41;;;;;;;21.83;9.43;;;;;;;10.31;68.08;102992.47;5011228;28;20044;-46
2023/11/22 01:42:06;;;;;;;20.38;9.88;;;;;;;10.32;67.83;102998.59;5010347;28;20038;-50
2023/11/22 01:44:32;;;;;;;19.33;9.80;;;;;;;10.32;68.13;102994.25;5010464;28;20041;-46
2023/11/22 01:46:58;;;;;;;18.65;9.30;;;;;;;10.34;67.99;102999.56;5011067;28;20084;-44
2023/11/22 01:49:23;;;;;;;17.80;9.93;;;;;;;10.27;68.07;103002.69;5010301;28;20738;-49
2023/11/22 01:51:49;;;;;;;17.52;9.52;;;;;;;10.36;67.42;103013.56;5010752;28;20633;-48
2023/11/22 01:54:15;;;;;;;16.17;9.10;;;;;;;10.08;68.69;103016.50;5010351;28;20030;-47
2023/11/22 01:56:41;;;;;;;18.35;8.85;;;;;;;10.17;68.64;103014.41;5026075;28;20042;-46
2023/11/22 01:59:06;;;;;;;17.95;9.10;;;;;;;10.27;68.35;103008.81;5010617;28;20036;-47
2023/11/22 02:01:32;;;;;;;19.95;9.73;;;;;;;10.24;68.22;103008.66;5009555;28;20033;-47
2023/11/22 02:03:58;;;;;;;19.30;9.77;;;;;;;10.18;68.47;103004.03;5010291;28;20029;-47
2023/11/22 02:06:25;;;;;;;19.20;9.45;;;;;;;10.18;67.86;103004.88;5010485;28;20037;-50
2023/11/22 02:08:51;;;;;;;16.13;8.68;;;;;;;10.14;67.71;103002.06;5011918;28;20029;-47
2023/11/22 02:11:24;;;;;;;17.73;9.70;;;;;;;10.01;68.16;102994.44;5012668;28;20038;-48
2023/11/22 02:13:50;;;;;;;20.60;9.70;;;;;;;9.81;70.09;102991.69;5010940;28;20116;-47
2023/11/22 02:16:16;;;;;;;22.65;9.80;;;;;;;10.02;69.00;102992.75;5009146;28;20458;-46
2023/11/22 02:18:44;;;;;;;20.95;9.95;;;;;;;10.04;68.74;102992.00;5011529;28;20030;-48
2023/11/22 02:21:09;;;;;;;19.00;9.40;;;;;;;10.03;69.04;102985.00;5010974;28;20030;-46
2023/11/22 02:23:34;;;;;;;19.58;9.35;;;;;;;10.07;68.74;102991.25;5010372;28;20096;-47
2023/11/22 02:26:00;;;;;;;19.83;9.43;;;;;;;10.05;68.52;102983.38;5010430;28;20030;-47
2023/11/22 02:28:25;;;;;;;19.35;9.65;;;;;;;9.67;69.88;102985.78;5009788;28;20037;-47
2023/11/22 02:30:51;;;;;;;22.38;10.13;;;;;;;9.70;70.33;102985.91;5010456;28;20393;-50
2023/11/22 02:33:16;;;;;;;20.58;10.32;;;;;;;9.85;69.76;102988.41;5009842;28;20038;-44
2023/11/22 02:35:42;;;;;;;20.88;10.43;;;;;;;9.90;69.40;102990.44;5010473;28;20123;-46
2023/11/22 02:38:07;;;;;;;20.63;10.43;;;;;;;9.88;69.81;102992.06;5009217;28;20034;-49
2023/11/22 02:40:32;;;;;;;24.55;11.30;;;;;;;9.85;69.95;102994.53;5009980;28;20037;-45
2023/11/22 02:42:58;;;;;;;23.20;10.75;;;;;;;9.93;69.78;103000.13;5010151;28;20472;-47
2023/11/22 02:45:29;;;;;;;30.83;11.90;;;;;;;9.96;69.51;103002.88;5009518;28;20038;-49
2023/11/22 02:47:55;;;;;;;33.63;12.25;;;;;;;9.96;70.01;102995.94;5010327;28;20116;-45
2023/11/22 02:50:20;;;;;;;36.03;12.77;;;;;;;9.94;70.02;103005.38;5009845;28;20133;-47
2023/11/22 02:52:45;;;;;;;37.85;13.75;;;;;;;10.01;69.34;102998.78;5009804;28;20041;-47
2023/11/22 02:55:11;;;;;;;37.38;13.13;;;;;;;9.90;69.44;102999.97;5010011;28;20100;-46
2023/11/22 02:57:37;;;;;;;33.45;13.15;;;;;;;9.87;69.32;102992.91;5013665;28;20044;-46
2023/11/22 03:00:04;;;;;;;32.20;13.13;;;;;;;9.84;69.51;102992.72;5013711;28;20459;-50
2023/11/22 03:02:29;;;;;;;27.13;11.93;;;;;;;9.83;69.28;102996.16;5014731;28;20038;-45
2023/11/22 03:04:55;;;;;;;26.58;11.15;;;;;;;9.83;69.45;102980.50;5014741;28;20096;-47
2023/11/22 03:07:21;;;;;;;24.17;10.75;;;;;;;9.83;68.89;102987.44;5014088;28;20485;-46
2023/11/22 03:09:46;;;;;;;25.65;11.45;;;;;;;9.83;68.86;102982.22;5015666;28;20026;-46
2023/11/22 03:12:14;;;;;;;22.55;10.98;;;;;;;9.78;68.54;102989.81;5014983;28;20140;-45
2023/11/22 03:14:39;;;;;;;22.23;10.80;;;;;;;9.77;68.44;102988.91;5014507;28;20050;-46
2023/11/22 03:17:06;;;;;;;22.90;11.25;;;;;;;9.69;68.65;102994.59;5013539;28;20220;-45
2023/11/22 03:19:33;;;;;;;24.20;11.65;;;;;;;9.46;70.25;102997.69;5013702;28;20038;-46
2023/11/22 03:21:59;;;;;;;26.13;11.02;;;;;;;9.59;70.09;102997.50;5013624;28;20484;-46
2023/11/22 03:24:24;;;;;;;27.85;10.73;;;;;;;9.68;69.56;103013.63;5013557;28;20030;-45
2023/11/22 03:26:50;;;;;;;25.73;11.07;;;;;;;9.67;69.47;103019.66;5013660;28;20124;-44
2023/11/22 03:29:18;;;;;;;23.65;10.88;;;;;;;9.71;69.86;103025.06;5012957;28;20151;-46
2023/11/22 03:31:44;;;;;;;28.40;11.45;;;;;;;9.71;69.81;103030.28;5013491;28;20030;-45
2023/11/22 03:34:09;;;;;;;29.80;11.05;;;;;;;9.79;69.61;103030.69;5012786;28;20045;-50
2023/11/22 03:36:34;;;;;;;24.27;11.18;;;;;;;9.83;69.59;103042.13;5013465;28;20038;-45
2023/11/22 03:39:00;;;;;;;19.45;10.63;;;;;;;9.87;69.69;103055.44;5012986;28;20510;-45
2023/11/22 03:41:25;;;;;;;22.67;11.20;;;;;;;9.91;70.04;103059.06;5012919;28;20034;-45
2023/11/22 03:43:50;;;;;;;22.83;10.60;;;;;;;9.90;69.65;103071.19;5013829;28;20539;-44
2023/11/22 03:46:15;;;;;;;22.35;10.63;;;;;;;9.88;69.83;103058.94;5013986;28;20042;-50
2023/11/22 03:48:41;;;;;;;23.98;10.82;;;;;;;9.83;69.79;103065.59;5013379;28;20568;-45
2023/11/22 03:51:06;;;;;;;26.02;11.13;;;;;;;9.81;70.15;103069.84;5012621;28;20120;-47
2023/11/22 03:53:32;;;;;;;22.65;11.35;;;;;;;9.81;70.11;103069.84;5012921;28;20088;-46
2023/11/22 03:55:57;;;;;;;20.08;11.10;;;;;;;9.92;69.86;103068.69;5013052;28;20408;-44
2023/11/22 03:58:22;;;;;;;22.08;10.85;;;;;;;9.86;69.91;103071.88;5012155;28;20522;-45
2023/11/22 04:00:48;;;;;;;22.55;10.88;;;;;;;9.85;69.86;103070.06;5012950;28;20049;-44
2023/11/22 04:03:13;;;;;;;20.35;10.50;;;;;;;9.81;70.17;103068.13;5012192;28;20038;-45
2023/11/22 04:05:39;;;;;;;21.10;9.95;;;;;;;9.87;70.03;103084.09;5012796;28;20054;-50
2023/11/22 04:08:04;;;;;;;19.98;10.20;;;;;;;9.84;70.15;103075.19;5011905;28;20080;-49
2023/11/22 04:10:30;;;;;;;21.25;10.93;;;;;;;9.84;69.84;103073.50;5012394;28;20125;-46
2023/11/22 04:12:56;;;;;;;22.27;11.35;;;;;;;9.84;70.13;103075.19;5012650;28;20060;-47
2023/11/22 04:15:21;;;;;;;20.73;10.40;;;;;;;9.92;69.81;103076.50;5012002;28;20048;-50
2023/11/22 04:17:47;;;;;;;20.20;10.88;;;;;;;9.98;69.72;103089.84;5012635;28;20036;-46
2023/11/22 04:20:14;;;;;;;21.30;11.13;;;;;;;9.88;69.82;103088.44;5011702;28;20049;-46
2023/11/22 04:22:47;;;;;;;22.77;11.38;;;;;;;9.88;69.74;103082.38;5011997;28;20566;-48
2023/11/22 04:25:15;;;;;;;23.02;11.68;;;;;;;9.95;69.77;103087.06;5011970;28;20330;-46
2023/11/22 04:27:41;;;;;;;21.73;11.10;;;;;;;9.91;69.66;103086.03;5012194;28;20037;-44
2023/11/22 04:30:08;;;;;;;20.05;10.63;;;;;;;9.93;69.87;103089.59;5011879;28;20111;-45
2023/11/22 04:32:36;;;;;;;27.50;11.88;;;;;;;9.95;69.59;103094.88;5012498;28;20487;-43
2023/11/22 04:35:03;;;;;;;23.17;12.15;;;;;;;9.96;70.30;103101.88;5012000;28;20053;-46
2023/11/22 04:37:31;;;;;;;24.45;12.02;;;;;;;9.99;70.58;103100.34;5011745;28;20104;-47
2023/11/22 04:39:57;;;;;;;23.00;12.10;;;;;;;10.04;70.27;103100.56;5011963;28;20120;-49
2023/11/22 04:42:22;;;;;;;25.92;12.68;;;;;;;10.05;70.27;103098.06;5011909;28;20145;-50
2023/11/22 04:44:47;;;;;;;23.58;11.82;;;;;;;10.07;70.20;103095.50;5011934;28;20029;-45
2023/11/22 04:47:13;;;;;;;23.98;12.23;;;;;;;10.06;70.07;103098.94;5011646;28;20034;-47
2023/11/22 04:49:38;;;;;;;28.65;13.15;;;;;;;10.09;70.34;103099.09;5012006;28;20037;-53
2023/11/22 04:52:04;;;;;;;28.58;12.85;;;;;;;10.09;70.45;103091.28;5011633;28;20536;-47
2023/11/22 04:54:29;;;;;;;24.85;12.43;;;;;;;10.13;70.26;103091.50;5011920;28;20076;-46
2023/11/22 04:56:54;;;;;;;24.58;11.50;;;;;;;10.15;70.45;103088.97;5011121;28;20129;-46
2023/11/22 04:59:20;;;;;;;28.67;13.05;;;;;;;9.92;70.79;103086.91;5011424;28;20041;-46
2023/11/22 05:01:45;;;;;;;23.95;12.50;;;;;;;10.21;70.09;103091.91;5010423;28;20084;-50
2023/11/22 05:04:10;;;;;;;26.95;13.30;;;;;;;9.78;69.79;103089.69;5011158;28;20076;-47
2023/11/22 05:06:36;;;;;;;25.45;12.35;;;;;;;10.03;69.75;103085.75;5011558;28;20053;-47
2023/11/22 05:09:02;;;;;;;28.13;12.88;;;;;;;10.27;69.05;103099.16;5011141;28;20034;-48
2023/11/22 05:11:27;;;;;;;25.05;12.70;;;;;;;10.33;68.91;103112.50;5010043;28;20052;-46
2023/11/22 05:13:53;;;;;;;24.70;12.68;;;;;;;10.34;68.36;103102.16;5011639;28;20084;-44
2023/11/22 05:16:18;;;;;;;28.95;13.13;;;;;;;10.33;68.46;103102.97;5011543;28;20080;-45
2023/11/22 05:18:44;;;;;;;25.92;12.77;;;;;;;10.34;68.29;103096.94;5011816;28;20112;-49
2023/11/22 05:21:09;;;;;;;23.02;12.30;;;;;;;10.33;68.28;103099.44;5012669;28;20045;-45
2023/11/22 05:23:37;;;;;;;24.67;12.27;;;;;;;10.31;68.38;103090.66;5013577;28;20034;-45
2023/11/22 05:26:04;;;;;;;25.45;12.00;;;;;;;10.28;68.08;103087.91;5012810;28;20041;-49
2023/11/22 05:28:30;;;;;;;25.15;12.32;;;;;;;10.31;67.93;103075.91;5010718;28;20109;-46
2023/11/22 05:30:55;;;;;;;25.85;12.30;;;;;;;10.25;67.87;103061.66;5011530;28;20042;-45
2023/11/22 05:33:21;;;;;;;24.98;12.60;;;;;;;10.06;68.26;103062.47;5011121;28;20536;-51
2023/11/22 05:35:46;;;;;;;26.08;12.73;;;;;;;9.93;68.19;103055.75;5011640;28;20037;-47
2023/11/22 05:38:12;;;;;;;24.10;12.63;;;;;;;9.88;68.24;103065.00;5013364;28;20026;-45
2023/11/22 05:40:38;;;;;;;25.65;12.77;;;;;;;10.03;67.81;103064.91;5013358;28;20165;-47
2023/11/22 05:43:04;;;;;;;25.05;12.55;;;;;;;10.06;68.03;103076.34;5012710;28;20038;-45
2023/11/22 05:45:29;;;;;;;25.23;12.77;;;;;;;10.03;67.80;103071.00;5011225;28;20067;-45
2023/11/22 05:47:55;;;;;;;25.23;12.75;;;;;;;10.01;67.29;103072.63;5011079;28;20045;-45
2023/11/22 05:50:20;;;;;;;22.33;11.88;;;;;;;10.17;67.23;103069.13;5010699;28;20053;-45
2023/11/22 05:52:45;;;;;;;22.65;12.43;;;;;;;10.09;66.82;103065.19;5010737;28;20563;-48
2023/11/22 05:55:13;;;;;;;25.20;12.48;;;;;;;10.12;66.81;103076.66;5010314;28;20124;-47
2023/11/22 05:57:40;;;;;;;25.67;11.68;;;;;;;10.24;66.47;103086.88;5011131;28;20037;-46
2023/11/22 06:00:06;;;;;;;22.80;12.35;;;;;;;10.13;66.53;103093.19;5010482;28;20699;-45
2023/11/22 06:02:31;;;;;;;22.17;12.23;;;;;;;10.18;66.73;103090.03;5011145;28;20042;-46
2023/11/22 06:04:56;;;;;;;22.50;12.13;;;;;;;10.16;66.42;103102.13;5011396;28;20100;-48
2023/11/22 06:07:22;;;;;;;23.52;12.80;;;;;;;10.02;66.89;103105.69;5010962;28;20038;-52
2023/11/22 06:09:48;;;;;;;24.40;12.50;;;;;;;9.99;66.82;103115.09;5010905;28;20029;-48
2023/11/22 06:12:14;;;;;;;22.08;12.10;;;;;;;9.94;66.68;103127.00;5011104;28;20026;-47
2023/11/22 06:14:39;;;;;;;23.80;12.43;;;;;;;10.08;66.08;103125.97;5011939;28;20033;-46
2023/11/22 06:17:04;;;;;;;24.13;11.48;;;;;;;10.15;65.84;103138.50;5011959;28;20052;-50
2023/11/22 06:19:30;;;;;;;22.63;11.98;;;;;;;10.16;65.86;103137.69;5010806;28;20037;-46
2023/11/22 06:21:56;;;;;;;22.58;11.40;;;;;;;10.15;65.48;103133.28;5011827;28;20042;-48
2023/11/22 06:24:21;;;;;;;21.17;11.30;;;;;;;10.20;65.58;103146.56;5010017;28;20046;-48
2023/11/22 06:26:47;;;;;;;23.50;12.90;;;;;;;10.06;65.92;103133.69;5010365;28;20113;-46
2023/11/22 06:29:12;;;;;;;22.98;11.80;;;;;;;9.87;66.62;103128.38;5009666;28;20037;-47
2023/11/22 06:31:38;;;;;;;22.65;11.80;;;;;;;9.69;67.13;103123.09;5010266;28;20022;-50
2023/11/22 06:34:03;;;;;;;23.50;12.43;;;;;;;9.88;66.80;103111.91;5009841;28;20033;-51
2023/11/22 06:36:29;;;;;;;22.48;12.63;;;;;;;10.07;65.75;103104.22;5008623;28;20057;-45
2023/11/22 06:38:55;;;;;;;24.63;12.45;;;;;;;10.13;65.46;103095.81;5010117;28;20076;-46
2023/11/22 06:41:21;;;;;;;27.08;12.98;;;;;;;9.44;67.26;103095.69;5010159;28;20396;-49
2023/11/22 06:43:47;;;;;;;25.88;12.73;;;;;;;9.66;66.88;103089.06;5010241;28;20499;-46
2023/11/22 06:46:12;;;;;;;24.25;12.13;;;;;;;9.93;65.79;103087.00;5009713;28;20034;-50
2023/11/22 06:48:38;;;;;;;25.95;12.77;;;;;;;10.01;65.88;103083.06;5010153;28;20524;-46
2023/11/22 06:51:03;;;;;;;25.92;13.15;;;;;;;9.84;66.04;103089.13;5009743;28;20654;-48
2023/11/22 06:53:28;;;;;;;24.38;12.68;;;;;;;9.71;66.71;103094.50;5009818;28;20058;-50
2023/11/22 06:55:54;;;;;;;27.20;13.02;;;;;;;10.04;65.57;103095.34;5010330;28;20034;-46
2023/11/22 06:58:19;;;;;;;25.20;13.13;;;;;;;9.80;66.22;103100.22;5009652;28;20096;-48
2023/11/22 07:00:44;;;;;;;26.02;13.07;;;;;;;9.84;65.99;103109.97;5010122;28;20029;-51
2023/11/22 07:03:10;;;;;;;25.40;13.02;;;;;;;9.85;65.94;103116.97;5010158;28;20038;-46
2023/11/22 07:05:36;;;;;;;25.45;13.23;;;;;;;10.07;65.56;103119.84;5010793;28;20037;-45
2023/11/22 07:08:03;;;;;;;26.75;13.57;;;;;;;10.00;65.23;103120.34;5010060;28;20030;-50
2023/11/22 07:10:28;;;;;;;27.20;13.32;;;;;;;10.02;65.21;103130.84;5010244;28;20536;-46
2023/11/22 07:12:54;;;;;;;24.42;13.55;;;;;;;10.02;65.57;103142.19;5010202;28;20097;-46
2023/11/22 07:15:19;;;;;;;27.80;13.15;;;;;;;9.83;65.78;103152.47;5008852;28;20532;-48
2023/11/22 07:17:45;;;;;;;27.50;13.10;;;;;;;9.74;66.31;103160.69;5010474;28;20293;-45
2023/11/22 07:20:15;;;;;;;26.27;13.43;;;;;;;9.67;66.58;103155.06;5010503;28;20026;-45
2023/11/22 07:22:42;;;;;;;25.60;13.25;;;;;;;9.65;65.96;103135.84;5011040;28;20116;-46
2023/11/22 07:25:17;;;;;;;25.98;13.07;;;;;;;9.90;65.27;103138.03;5009300;28;20034;-47
2023/11/22 07:27:46;;;;;;;28.58;12.68;;;;;;;9.87;65.03;103125.78;5011034;28;20121;-46
2023/11/22 07:30:15;;;;;;;26.90;13.32;;;;;;;9.84;65.53;103120.38;5010680;28;20048;-46
2023/11/22 07:32:41;;;;;;;24.83;12.80;;;;;;;9.91;65.33;103129.41;5011138;28;20404;-46
2023/11/22 07:35:11;;;;;;;24.17;12.75;;;;;;;9.88;65.54;103137.09;5009970;28;20068;-51
2023/11/22 07:37:39;;;;;;;24.27;12.70;;;;;;;9.85;65.66;103137.81;5009858;28;20062;-49
2023/11/22 07:40:07;;;;;;;23.70;12.63;;;;;;;9.88;65.51;103139.69;5008922;28;20046;-51
2023/11/22 07:42:33;;;;;;;23.65;12.25;;;;;;;9.78;65.72;103147.00;5010253;28;20042;-46
2023/11/22 07:44:58;;;;;;;28.88;13.80;;;;;;;9.71;66.21;103164.84;5013262;28;20048;-47
2023/11/22 07:47:24;;;;;;;25.35;12.95;;;;;;;9.81;66.06;103167.13;5012929;28;20049;-45
2023/11/22 07:49:50;;;;;;;26.33;13.02;;;;;;;9.74;66.41;103165.00;5013424;28;20636;-46
2023/11/22 07:52:15;;;;;;;27.08;12.80;;;;;;;9.72;66.08;103169.22;5012752;28;20484;-49
2023/11/22 07:54:41;;;;;;;27.45;12.98;;;;;;;9.75;65.70;103169.41;5009971;28;20041;-49
2023/11/22 07:57:07;;;;;;;25.92;12.82;;;;;;;9.68;66.22;103181.22;5010527;28;20129;-46
2023/11/22 07:59:32;;;;;;;27.65;13.30;;;;;;;9.67;66.86;103189.84;5012067;28;20030;-46
2023/11/22 08:01:58;;;;;;;28.55;13.32;;;;;;;9.71;66.80;103191.78;5012578;28;20047;-47
2023/11/22 08:04:23;;;;;;;28.30;13.55;;;;;;;9.77;66.48;103186.91;5011898;28;20030;-51
2023/11/22 08:06:49;;;;;;;28.00;13.55;;;;;;;9.80;66.66;103187.88;5013049;28;20030;-46
2023/11/22 08:09:16;;;;;;;27.23;13.52;;;;;;;9.92;66.75;103189.44;5011313;28;20489;-49
2023/11/22 08:11:42;;;;;;;26.77;13.48;;;;;;;10.02;66.75;103190.78;5012441;28;20034;-46
2023/11/22 08:14:07;;;;;;;28.83;13.80;;;;;;;10.10;66.61;103193.00;5011720;28;20036;-48
2023/11/22 08:16:38;;;;;;;26.98;13.90;;;;;;;10.13;66.66;103193.16;5011761;28;20037;-48
2023/11/22 08:19:05;;;;;;;26.42;13.65;;;;;;;10.03;65.89;103193.50;5011407;28;20157;-47
2023/11/22 08:21:30;;;;;;;28.25;13.07;;;;;;;10.17;66.44;103196.84;5012277;28;20034;-47
2023/11/22 08:23:55;;;;;;;26.95;13.43;;;;;;;10.20;65.87;103198.72;5012127;28;20515;-49
2023/11/22 08:26:21;;;;;;;26.52;13.18;;;;;;;10.27;66.13;103204.31;5026834;28;20132;-48
2023/11/22 08:28:46;;;;;;;30.00;14.00;;;;;;;10.37;66.01;103210.94;5012071;28;20164;-48
2023/11/22 08:31:12;;;;;;;28.17;13.98;;;;;;;10.32;65.80;103213.28;5011759;28;20038;-48
2023/11/22 08:33:38;;;;;;;28.33;14.38;;;;;;;10.14;65.39;103217.50;5011664;28;20061;-48
2023/11/22 08:36:07;;;;;;;26.95;13.98;;;;;;;10.45;64.75;103210.47;5011271;28;20381;-47
2023/11/22 08:38:33;;;;;;;27.52;13.50;;;;;;;10.48;64.88;103204.53;5012077;28;20056;-50
2023/11/22 08:41:02;;;;;;;27.08;13.85;;;;;;;10.56;64.66;103197.97;5012515;28;20057;-45
2023/11/22 08:43:28;;;;;;;26.92;13.75;;;;;;;10.63;64.71;103202.69;5011472;28;20030;-46
2023/11/22 08:45:53;;;;;;;26.67;13.98;;;;;;;10.53;64.94;103182.19;5011566;28;20042;-48
2023/11/22 08:48:19;;;;;;;28.92;14.18;;;;;;;10.56;64.59;103185.84;5011799;28;20038;-46
2023/11/22 08:50:47;;;;;;;25.52;13.63;;;;;;;10.77;63.84;103183.41;5011682;28;20510;-46
2023/11/22 08:53:12;;;;;;;27.42;13.95;;;;;;;10.77;63.93;103183.41;5010809;28;20080;-48
2023/11/22 08:55:38;;;;;;;27.73;14.05;;;;;;;10.75;63.80;103189.34;5011401;28;20030;-45
2023/11/22 08:58:05;;;;;;;27.10;14.43;;;;;;;10.82;63.94;103188.84;5011570;28;20104;-49
2023/11/22 09:00:32;;;;;;;26.25;13.77;;;;;;;10.78;63.93;103187.81;5011517;28;20032;-49
2023/11/22 09:02:57;;;;;;;27.88;13.70;;;;;;;10.76;63.47;103186.84;5011927;28;20103;-46
2023/11/22 09:05:23;;;;;;;27.33;14.02;;;;;;;10.83;63.63;103185.41;5011368;28;20806;-50
2023/11/22 09:07:50;;;;;;;24.95;13.43;;;;;;;10.82;63.67;103189.75;5012239;28;20034;-46
2023/11/22 09:10:18;;;;;;;26.33;14.27;;;;;;;10.55;64.31;103197.09;5011881;28;20116;-52
2023/11/22 09:12:44;;;;;;;29.20;14.07;;;;;;;10.83;63.75;103196.75;5012042;28;20033;-49
2023/11/22 09:15:12;;;;;;;27.05;13.93;;;;;;;10.83;63.38;103196.75;5011732;28;20042;-48
2023/11/22 09:17:42;;;;;;;28.38;13.80;;;;;;;10.84;63.34;103198.56;5011838;28;20066;-47
2023/11/22 09:20:18;;;;;;;28.58;14.20;;;;;;;10.95;63.11;103196.47;5013013;28;20038;-44
2023/11/22 09:22:47;;;;;;;33.20;14.70;;;;;;;11.02;62.67;103185.50;5013495;28;20533;-44
2023/11/22 09:25:16;;;;;;;26.15;14.48;;;;;;;10.99;62.74;103195.78;5012756;28;20041;-45
2023/11/22 09:27:46;;;;;;;31.05;14.63;;;;;;;10.66;63.68;103199.34;5012581;28;20033;-45
2023/11/22 09:30:17;;;;;;;26.17;13.95;;;;;;;11.01;63.21;103195.84;5011719;28;20065;-46
2023/11/22 09:32:45;;;;;;;26.50;13.60;;;;;;;11.20;63.04;103186.38;5012054;28;20042;-50
2023/11/22 09:35:13;;;;;;;28.30;14.48;;;;;;;11.11;62.63;103187.63;5011933;28;20058;-45
2023/11/22 09:37:40;;;;;;;30.58;14.38;;;;;;;10.95;62.01;103179.09;5012191;28;20488;-47
2023/11/22 09:40:09;;;;;;;28.38;14.35;;;;;;;10.95;62.88;103184.31;5011309;28;20036;-47
2023/11/22 09:42:34;;;;;;;27.50;13.82;;;;;;;11.09;62.77;103181.47;5012146;28;20049;-46
2023/11/22 09:44:59;;;;;;;27.95;13.77;;;;;;;10.94;63.38;103174.69;5011418;28;20034;-50
2023/11/22 09:47:26;;;;;;;27.30;13.85;;;;;;;11.09;62.84;103171.94;5010520;28;20404;-47
2023/11/22 09:49:54;;;;;;;27.60;14.13;;;;;;;11.10;62.55;103172.81;5010865;28;20548;-45
2023/11/22 09:52:26;;;;;;;30.30;14.20;;;;;;;11.04;63.07;103180.38;5009272;28;20117;-49
2023/11/22 09:54:52;;;;;;;29.00;14.23;;;;;;;10.88;62.69;103179.59;5011484;28;20032;-45
2023/11/22 09:57:19;;;;;;;27.13;14.35;;;;;;;10.62;63.39;103184.34;5010242;28;20497;-49
2023/11/22 09:59:47;;;;;;;28.00;13.85;;;;;;;10.76;63.89;103180.72;5010647;28;20523;-46
2023/11/22 10:02:12;;;;;;;27.10;13.95;;;;;;;11.14;63.09;103172.13;5010306;28;20045;-49
2023/11/22 10:04:38;;;;;;;27.85;15.05;;;;;;;11.10;62.97;103171.06;5010436;28;20030;-45
2023/11/22 10:07:04;;;;;;;28.13;15.35;;;;;;;11.28;63.08;103169.34;5010040;28;20042;-46
2023/11/22 10:09:29;;;;;;;29.20;14.55;;;;;;;11.40;62.77;103164.69;5010738;28;20056;-46
2023/11/22 10:11:58;;;;;;;30.08;14.93;;;;;;;11.52;62.04;103160.88;5011126;28;20042;-51
2023/11/22 10:14:25;;;;;;;27.25;14.50;;;;;;;11.49;62.24;103151.16;5010683;28;20030;-50
2023/11/22 10:16:59;;;;;;;26.90;14.73;;;;;;;11.51;61.71;103152.13;5010691;28;20034;-48
2023/11/22 10:19:25;;;;;;;28.30;14.63;;;;;;;11.90;60.96;103141.69;5009873;28;20034;-46
2023/11/22 10:22:03;;;;;;;26.35;14.43;;;;;;;11.96;60.21;103140.25;5010672;28;20030;-50
2023/11/22 10:24:36;;;;;;;28.95;14.90;;;;;;;11.87;60.80;103145.09;5010275;28;20395;-49
2023/11/22 10:27:02;;;;;;;27.90;14.25;;;;;;;11.92;60.18;103130.50;5010635;28;20037;-46
2023/11/22 10:29:28;;;;;;;25.95;14.40;;;;;;;12.03;59.71;103126.63;5010028;28;20030;-50
2023/11/22 10:31:54;;;;;;;27.30;13.88;;;;;;;11.99;59.46;103115.97;5010434;28;20041;-48
2023/11/22 10:34:23;;;;;;;24.70;13.82;;;;;;;11.85;59.80;103112.75;5008810;28;20026;-49
2023/11/22 10:36:53;;;;;;;26.48;13.63;;;;;;;11.71;59.92;103119.94;5010501;28;20122;-45
2023/11/22 10:39:22;;;;;;;26.95;13.80;;;;;;;11.84;60.49;103116.19;5009660;28;20037;-50
2023/11/22 10:41:50;;;;;;;31.10;14.70;;;;;;;11.46;60.73;103121.41;5010398;28;20030;-48
2023/11/22 10:44:16;;;;;;;27.58;14.52;;;;;;;11.95;60.11;103117.56;5010695;28;20050;-47
2023/11/22 10:46:41;;;;;;;26.58;13.88;;;;;;;11.57;60.13;103114.94;5011115;28;20475;-45
2023/11/22 10:49:07;;;;;;;25.63;14.23;;;;;;;11.74;60.04;103127.06;5010229;28;20048;-45
2023/11/22 10:51:33;;;;;;;25.95;14.60;;;;;;;11.92;59.26;103113.91;5010789;28;20109;-50
2023/11/22 10:54:03;;;;;;;30.83;13.65;;;;;;;11.95;58.91;103107.13;5010011;28;20042;-50
2023/11/22 10:56:37;;;;;;;24.42;13.68;;;;;;;12.08;58.64;103106.78;5010234;28;20088;-49
2023/11/22 10:59:09;;;;;;;25.35;14.10;;;;;;;11.75;59.07;103105.34;5009867;28;20038;-47
2023/11/22 11:01:35;;;;;;;25.20;13.52;;;;;;;12.08;58.53;103090.19;5010339;28;20512;-44
2023/11/22 11:04:06;;;;;;;26.13;13.30;;;;;;;12.01;57.52;103085.56;5010596;28;20038;-46
2023/11/22 11:06:34;;;;;;;25.45;13.52;;;;;;;12.23;57.54;103088.25;5010982;28;20041;-48
2023/11/22 11:09:11;;;;;;;23.15;13.23;;;;;;;12.42;57.70;103087.28;5010830;28;20041;-47